createdAt,value
2022-09-20T00:01:16.065Z,25.51
2022-09-20T00:03:45.771Z,25.50
2022-09-20T00:06:15.624Z,25.52
2022-09-20T00:08:43.535Z,25.49
2022-09-20T00:11:15.685Z,25.42
2022-09-20T00:13:44.709Z,25.37
2022-09-20T00:16:14.739Z,25.33
2022-09-20T00:18:41.862Z,25.26
2022-09-20T00:21:23.486Z,25.17
2022-09-20T00:23:52.360Z,25.10
2022-09-20T00:26:20.163Z,25.04
2022-09-20T00:28:47.619Z,25.00
2022-09-20T00:31:15.250Z,25.00
2022-09-20T00:34:00.951Z,24.99
2022-09-20T00:36:28.018Z,24.98
2022-09-20T00:38:59.320Z,24.98
2022-09-20T00:41:26.721Z,25.01
2022-09-20T00:43:55.292Z,25.04
2022-09-20T00:46:25.206Z,25.07
2022-09-20T00:48:56.420Z,25.04
2022-09-20T00:51:29.671Z,24.94
2022-09-20T00:53:59.270Z,24.84
2022-09-20T00:56:31.619Z,24.81
2022-09-20T00:59:05.522Z,24.80
2022-09-20T01:01:32.987Z,24.80
2022-09-20T01:04:01.237Z,24.78
2022-09-20T01:06:29.257Z,24.70
2022-09-20T01:08:59.203Z,24.65
2022-09-20T01:11:26.809Z,24.60
2022-09-20T01:13:53.848Z,24.62
2022-09-20T01:16:22.122Z,24.63
2022-09-20T01:18:50.673Z,24.64
2022-09-20T01:21:19.094Z,24.66
2022-09-20T01:24:07.719Z,24.67
2022-09-20T01:26:50.216Z,24.67
2022-09-20T01:29:41.716Z,24.67
2022-09-20T01:32:13.961Z,24.65
2022-09-20T01:34:55.559Z,24.64
2022-09-20T01:37:28.820Z,24.62
2022-09-20T01:39:59.025Z,24.61
2022-09-20T01:42:33.601Z,24.64
2022-09-20T01:45:32.438Z,24.66
2022-09-20T01:48:17.706Z,24.67
2022-09-20T01:51:12.495Z,24.67
2022-09-20T01:53:49.886Z,24.67
2022-09-20T01:56:59.407Z,24.67
2022-09-20T01:59:52.313Z,24.68
2022-09-20T02:02:50.229Z,24.64
2022-09-20T02:05:24.673Z,24.63
2022-09-20T02:08:01.155Z,24.61
2022-09-20T02:11:09.768Z,24.57
2022-09-20T02:14:09.901Z,24.54
2022-09-20T02:16:49.131Z,24.52
2022-09-20T02:19:33.614Z,24.55
2022-09-20T02:22:19.453Z,24.62
2022-09-20T02:25:04.873Z,24.71
2022-09-20T02:27:54.135Z,24.79
2022-09-20T02:30:51.567Z,24.86
2022-09-20T02:33:42.182Z,24.91
2022-09-20T02:36:33.943Z,24.95
2022-09-20T02:39:03.561Z,24.97
2022-09-20T02:41:43.370Z,24.98
2022-09-20T02:44:30.192Z,24.99
2022-09-20T02:47:08.142Z,25.00
2022-09-20T02:49:57.584Z,24.98
2022-09-20T02:52:39.266Z,24.94
2022-09-20T02:55:10.345Z,24.91
2022-09-20T02:58:15.326Z,24.95
2022-09-20T03:01:10.232Z,24.95
2022-09-20T03:03:51.737Z,24.98
2022-09-20T03:06:28.989Z,25.00
2022-09-20T03:09:04.232Z,25.01
2022-09-20T03:11:39.928Z,25.03
2022-09-20T03:14:15.547Z,25.04
2022-09-20T03:17:21.744Z,25.03
2022-09-20T03:20:25.656Z,25.00
2022-09-20T03:22:57.542Z,24.95
2022-09-20T03:25:39.776Z,24.93
2022-09-20T03:28:38.431Z,24.89
2022-09-20T03:31:08.277Z,24.85
2022-09-20T03:33:35.208Z,24.79
2022-09-20T03:36:23.409Z,24.77
2022-09-20T03:39:37.598Z,24.68
2022-09-20T03:42:20.508Z,24.62
2022-09-20T03:45:26.847Z,24.55
2022-09-20T03:48:30.778Z,24.47
2022-09-20T03:51:11.236Z,24.42
2022-09-20T03:53:51.821Z,24.41
2022-09-20T03:56:21.730Z,24.46
2022-09-20T03:59:11.017Z,24.51
2022-09-20T04:01:45.473Z,24.54
2022-09-20T04:04:30.862Z,24.56
2022-09-20T04:07:43.632Z,24.58
2022-09-20T04:10:42.229Z,24.57
2022-09-20T04:13:34.696Z,24.52
2022-09-20T04:16:27.205Z,24.46
2022-09-20T04:19:17.932Z,24.46
2022-09-20T04:21:56.581Z,24.46
2022-09-20T04:24:48.606Z,24.48
2022-09-20T04:27:41.452Z,24.48
2022-09-20T04:30:19.704Z,24.38
2022-09-20T04:33:17.852Z,24.31
2022-09-20T04:36:28.384Z,24.25
2022-09-20T04:39:02.360Z,24.24
2022-09-20T04:41:51.570Z,24.31
2022-09-20T04:44:38.802Z,24.39
2022-09-20T04:47:44.774Z,24.33
2022-09-20T04:50:45.667Z,24.30
2022-09-20T04:53:46.634Z,24.25
2022-09-20T04:56:41.143Z,24.21
2022-09-20T04:59:10.522Z,24.23
2022-09-20T05:01:56.066Z,24.26
2022-09-20T05:04:45.563Z,24.28
2022-09-20T05:07:42.919Z,24.31
2022-09-20T05:10:25.998Z,24.31
2022-09-20T05:13:30.484Z,24.28
2022-09-20T05:15:57.738Z,24.30
2022-09-20T05:18:27.859Z,24.32
2022-09-20T05:21:06.157Z,24.34
2022-09-20T05:24:12.747Z,24.32
2022-09-20T05:26:48.636Z,24.28
2022-09-20T05:29:25.933Z,24.30
2022-09-20T05:31:56.314Z,24.26
2022-09-20T05:34:23.380Z,24.23
2022-09-20T05:36:57.919Z,24.19
2022-09-20T05:39:50.456Z,24.18
2022-09-20T05:42:32.973Z,24.10
2022-09-20T05:45:37.397Z,24.04
2022-09-20T05:48:16.353Z,24.02
2022-09-20T05:50:57.790Z,23.97
2022-09-20T05:53:46.375Z,23.94
2022-09-20T05:56:43.757Z,23.91
2022-09-20T05:59:32.343Z,23.92
2022-09-20T06:02:09.651Z,23.92
2022-09-20T06:04:50.625Z,23.89
2022-09-20T06:07:20.866Z,23.90
2022-09-20T06:10:00.116Z,23.88
2022-09-20T06:12:48.330Z,23.90
2022-09-20T06:15:36.831Z,23.88
2022-09-20T06:18:24.933Z,23.87
2022-09-20T06:21:18.079Z,23.88
2022-09-20T06:23:45.643Z,23.88
2022-09-20T06:26:23.924Z,23.90
2022-09-20T06:28:58.277Z,23.89
2022-09-20T06:31:26.546Z,23.91
2022-09-20T06:34:02.640Z,23.95
2022-09-20T06:36:52.191Z,23.97
2022-09-20T06:40:15.626Z,24.03
2022-09-20T06:42:44.781Z,24.10
2022-09-20T06:45:11.965Z,24.14
2022-09-20T06:47:39.943Z,24.11
2022-09-20T06:50:07.745Z,24.04
2022-09-20T06:52:35.917Z,23.99
2022-09-20T06:55:07.709Z,23.94
2022-09-20T06:57:38.270Z,23.92
2022-09-20T07:00:07.279Z,23.92
2022-09-20T07:02:34.304Z,23.89
2022-09-20T07:05:01.390Z,23.91
2022-09-20T07:07:28.468Z,23.92
2022-09-20T07:09:55.434Z,23.94
2022-09-20T07:12:22.512Z,23.99
2022-09-20T07:14:50.857Z,24.06
2022-09-20T07:17:17.915Z,24.13
2022-09-20T07:19:44.926Z,24.17
2022-09-20T07:22:11.927Z,24.20
2022-09-20T07:24:39.354Z,24.21
2022-09-20T07:27:07.061Z,24.18
2022-09-20T07:29:35.594Z,24.19
2022-09-20T07:32:02.919Z,24.20
2022-09-20T07:34:30.017Z,24.23
2022-09-20T07:36:59.948Z,24.27
2022-09-20T07:39:27.366Z,24.27
2022-09-20T07:41:54.416Z,24.32
2022-09-20T07:44:22.384Z,24.35
2022-09-20T07:46:53.650Z,24.39
2022-09-20T07:49:21.550Z,24.45
2022-09-20T07:51:49.742Z,24.50
2022-09-20T07:54:17.449Z,24.54
2022-09-20T07:56:45.175Z,24.58
2022-09-20T07:59:13.448Z,24.63
2022-09-20T08:01:40.898Z,24.65
2022-09-20T08:04:09.284Z,24.67
2022-09-20T08:06:38.412Z,24.64
2022-09-20T08:09:10.718Z,24.64
2022-09-20T08:11:39.828Z,24.66
2022-09-20T08:14:17.416Z,24.70
2022-09-20T08:16:49.914Z,24.72
2022-09-20T08:19:22.188Z,24.76
2022-09-20T08:21:51.249Z,24.80
2022-09-20T08:24:19.304Z,24.79
2022-09-20T08:26:46.469Z,24.81
2022-09-20T08:29:15.275Z,24.81
2022-09-20T08:31:42.725Z,24.82
2022-09-20T08:34:12.758Z,24.83
2022-09-20T08:36:42.130Z,24.84
2022-09-20T08:42:02.578Z,24.89
2022-09-20T08:44:35.142Z,24.87
2022-09-20T08:47:25.991Z,24.87
2022-09-20T08:49:57.987Z,24.89
2022-09-20T08:52:37.376Z,24.91
2022-09-20T08:55:17.217Z,24.91
2022-09-20T08:57:49.318Z,24.96
2022-09-20T09:00:22.880Z,25.01
2022-09-20T09:02:57.378Z,25.04
2022-09-20T09:05:41.176Z,25.04
2022-09-20T09:08:17.806Z,25.04
2022-09-20T09:10:54.413Z,25.03
2022-09-20T09:13:37.775Z,25.06
2022-09-20T09:16:13.467Z,25.13
2022-09-20T09:18:42.764Z,25.16
2022-09-20T09:21:16.554Z,25.20
2022-09-20T09:24:02.082Z,25.21
2022-09-20T09:26:39.178Z,25.19
2022-09-20T09:29:18.029Z,25.21
2022-09-20T09:31:50.776Z,25.26
2022-09-20T09:34:26.383Z,25.27
2022-09-20T09:36:55.704Z,25.35
2022-09-20T09:39:33.798Z,25.34
2022-09-20T09:42:01.515Z,25.37
2022-09-20T09:44:35.775Z,25.42
2022-09-20T09:47:02.875Z,25.50
2022-09-20T09:49:36.599Z,25.54
2022-09-20T09:52:14.792Z,25.52
2022-09-20T09:54:53.516Z,25.55
2022-09-20T09:57:44.912Z,25.62
2022-09-20T10:00:20.385Z,25.64
2022-09-20T10:03:09.597Z,25.60
2022-09-20T10:06:06.211Z,25.63
2022-09-20T10:08:36.075Z,25.64
2022-09-20T10:11:13.354Z,25.66
2022-09-20T10:13:52.222Z,25.68
2022-09-20T10:16:29.720Z,25.69
2022-09-20T10:19:52.333Z,25.58
2022-09-20T10:22:31.507Z,25.61
2022-09-20T10:25:17.616Z,25.63
2022-09-20T10:27:53.492Z,25.61
2022-09-20T10:30:43.563Z,25.34
2022-09-20T10:33:29.894Z,25.31
2022-09-20T10:36:12.566Z,25.22
2022-09-20T10:38:51.554Z,25.16
2022-09-20T10:42:22.844Z,25.08
2022-09-20T10:45:24.441Z,25.18
2022-09-20T10:48:18.415Z,25.34
2022-09-20T10:51:00.398Z,25.37
2022-09-20T10:53:53.795Z,25.40
2022-09-20T10:56:47.452Z,25.50
2022-09-20T10:59:19.479Z,25.50
2022-09-20T11:02:11.835Z,25.45
2022-09-20T11:04:54.335Z,25.44
2022-09-20T11:07:36.521Z,25.47
2022-09-20T11:10:23.039Z,25.52
2022-09-20T11:12:58.616Z,25.60
2022-09-20T11:15:35.349Z,25.68
2022-09-20T11:18:11.595Z,25.67
2022-09-20T11:20:58.507Z,25.48
2022-09-20T11:23:40.909Z,25.57
2022-09-20T11:26:13.606Z,25.52
2022-09-20T11:28:50.635Z,25.46
2022-09-20T11:31:27.292Z,25.52
2022-09-20T11:34:23.706Z,25.70
2022-09-20T11:37:03.551Z,25.66
2022-09-20T11:39:46.644Z,25.65
2022-09-20T11:42:19.369Z,25.73
2022-09-20T11:44:46.975Z,25.83
2022-09-20T11:47:53.346Z,25.98
2022-09-20T11:50:39.076Z,26.03
2022-09-20T11:53:17.731Z,26.14
2022-09-20T11:56:15.421Z,26.29
2022-09-20T11:58:50.954Z,26.39
2022-09-20T12:01:29.626Z,26.46
2022-09-20T12:04:27.802Z,26.48
2022-09-20T12:06:48.275Z,26.57
2022-09-20T12:09:28.902Z,26.53
2022-09-20T12:11:57.404Z,26.27
2022-09-20T12:14:27.788Z,26.03
2022-09-20T12:16:57.180Z,25.96
2022-09-20T12:19:33.496Z,25.88
2022-09-20T12:22:00.496Z,25.77
2022-09-20T12:24:45.123Z,25.84
2022-09-20T12:27:27.915Z,25.86
2022-09-20T12:30:17.099Z,25.92
2022-09-20T12:32:47.892Z,25.98
2022-09-20T12:35:36.276Z,26.14
2022-09-20T12:38:21.514Z,26.31
2022-09-20T12:41:10.772Z,26.38
2022-09-20T12:43:53.307Z,26.38
2022-09-20T12:46:50.669Z,26.31
2022-09-20T12:49:48.357Z,26.34
2022-09-20T12:52:54.171Z,26.54
2022-09-20T12:55:33.059Z,26.76
2022-09-20T12:58:23.301Z,26.90
2022-09-20T13:00:56.164Z,26.93
2022-09-20T13:03:36.721Z,26.97
2022-09-20T13:06:11.176Z,27.03
2022-09-20T13:09:13.554Z,26.97
2022-09-20T13:11:52.723Z,27.14
2022-09-20T13:14:24.123Z,26.96
2022-09-20T13:17:13.880Z,26.98
2022-09-20T13:19:46.956Z,27.21
2022-09-20T13:22:28.554Z,27.32
2022-09-20T13:25:03.144Z,27.45
2022-09-20T13:27:34.827Z,27.52
2022-09-20T13:30:17.771Z,27.61
2022-09-20T13:32:45.394Z,27.38
2022-09-20T13:35:24.750Z,27.53
2022-09-20T13:37:55.875Z,27.61
2022-09-20T13:40:34.110Z,27.74
2022-09-20T13:43:23.004Z,27.74
2022-09-20T13:45:56.733Z,27.56
2022-09-20T13:48:30.641Z,27.40
2022-09-20T13:50:58.638Z,27.48
2022-09-20T13:53:41.141Z,27.39
2022-09-20T13:56:22.953Z,27.51
2022-09-20T13:58:51.616Z,27.57
2022-09-20T14:01:30.860Z,27.72
2022-09-20T14:04:09.281Z,27.83
2022-09-20T14:06:36.969Z,27.73
2022-09-20T14:09:11.076Z,27.85
2022-09-20T14:11:40.020Z,27.93
2022-09-20T14:14:08.246Z,28.01
2022-09-20T14:16:39.877Z,28.16
2022-09-20T14:19:08.490Z,28.29
2022-09-20T14:21:37.426Z,28.24
2022-09-20T14:24:08.469Z,28.15
2022-09-20T14:26:40.756Z,28.04
2022-09-20T14:29:32.433Z,27.95
2022-09-20T14:32:02.486Z,28.01
2022-09-20T14:34:29.634Z,27.90
2022-09-20T14:37:10.159Z,27.93
2022-09-20T14:39:53.307Z,27.90
2022-09-20T14:42:47.748Z,28.04
2022-09-20T14:45:35.378Z,28.12
2022-09-20T14:48:27.048Z,28.24
2022-09-20T14:51:11.215Z,28.35
2022-09-20T14:53:38.803Z,28.42
2022-09-20T14:56:05.702Z,28.52
2022-09-20T14:58:34.022Z,28.45
2022-09-20T15:01:17.446Z,28.43
2022-09-20T15:03:44.649Z,28.24
2022-09-20T15:06:13.157Z,28.46
2022-09-20T15:08:45.439Z,28.54
2022-09-20T15:11:18.001Z,28.90
2022-09-20T15:13:45.048Z,28.98
2022-09-20T15:16:17.911Z,29.17
2022-09-20T15:18:45.446Z,29.06
2022-09-20T15:21:13.054Z,29.11
2022-09-20T15:23:40.781Z,29.24
2022-09-20T15:26:09.143Z,29.40
2022-09-20T15:28:36.510Z,29.48
2022-09-20T15:31:03.633Z,29.37
2022-09-20T15:33:32.789Z,29.39
2022-09-20T15:36:02.442Z,29.55
2022-09-20T15:38:29.521Z,29.63
2022-09-20T15:40:56.522Z,29.61
2022-09-20T15:43:26.653Z,29.76
2022-09-20T15:45:56.555Z,29.90
2022-09-20T15:48:26.112Z,30.17
2022-09-20T15:51:07.081Z,30.25
2022-09-20T15:53:54.196Z,30.40
2022-09-20T15:56:27.739Z,30.58
2022-09-20T15:58:59.781Z,30.77
2022-09-20T16:01:54.220Z,30.83
2022-09-20T16:04:21.196Z,30.67
2022-09-20T16:06:50.115Z,30.70
2022-09-20T16:09:18.529Z,30.83
2022-09-20T16:11:46.010Z,30.95
2022-09-20T16:14:13.323Z,30.84
2022-09-20T16:16:41.001Z,30.40
2022-09-20T16:19:24.049Z,30.45
2022-09-20T16:21:57.641Z,30.70
2022-09-20T16:24:30.159Z,30.30
2022-09-20T16:26:58.712Z,30.43
2022-09-20T16:29:26.192Z,30.37
2022-09-20T16:31:54.695Z,29.88
2022-09-20T16:34:22.979Z,29.43
2022-09-20T16:36:52.211Z,29.06
2022-09-20T16:39:20.869Z,28.82
2022-09-20T16:41:49.198Z,28.56
2022-09-20T16:44:16.485Z,28.36
2022-09-20T16:46:44.870Z,28.23
2022-09-20T16:49:13.713Z,28.25
2022-09-20T16:51:43.177Z,28.04
2022-09-20T16:54:12.949Z,28.06
2022-09-20T16:56:58.733Z,27.96
2022-09-20T16:59:25.906Z,27.95
2022-09-20T17:01:53.005Z,27.91
2022-09-20T17:04:21.339Z,27.89
2022-09-20T17:06:49.818Z,27.94
2022-09-20T17:09:17.381Z,27.89
2022-09-20T17:11:47.363Z,27.82
2022-09-20T17:14:16.668Z,27.76
2022-09-20T17:16:48.065Z,27.75
2022-09-20T17:19:18.731Z,27.71
2022-09-20T17:21:50.734Z,27.64
2022-09-20T17:24:22.722Z,27.67
2022-09-20T17:26:51.069Z,27.59
2022-09-20T17:29:19.472Z,27.38
2022-09-20T17:31:53.912Z,27.52
2022-09-20T17:34:22.262Z,27.56
2022-09-20T17:36:50.637Z,27.58
2022-09-20T17:39:18.329Z,27.62
2022-09-20T17:41:50.062Z,27.56
2022-09-20T17:44:17.883Z,27.59
2022-09-20T17:46:47.091Z,27.60
2022-09-20T17:49:19.699Z,27.57
2022-09-20T17:51:49.326Z,27.60
2022-09-20T17:54:16.702Z,27.67
2022-09-20T17:56:46.711Z,27.92
2022-09-20T17:59:16.400Z,28.31
2022-09-20T18:01:45.070Z,28.74
2022-09-20T18:04:12.699Z,29.06
2022-09-20T18:06:46.909Z,28.97
2022-09-20T18:09:19.168Z,28.69
2022-09-20T18:11:53.636Z,28.58
2022-09-20T18:14:26.106Z,28.85
2022-09-20T18:16:55.455Z,28.97
2022-09-20T18:19:23.063Z,29.16
2022-09-20T18:21:50.905Z,29.13
2022-09-20T18:24:18.299Z,29.19
2022-09-20T18:26:45.527Z,29.07
2022-09-20T18:29:16.899Z,28.48
2022-09-20T18:31:51.120Z,27.87
2022-09-20T18:34:22.064Z,27.47
2022-09-20T18:36:53.411Z,27.41
2022-09-20T18:39:22.233Z,27.33
2022-09-20T18:41:50.679Z,27.30
2022-09-20T18:44:18.828Z,27.22
2022-09-20T18:46:47.083Z,27.16
2022-09-20T18:49:16.529Z,27.05
2022-09-20T18:51:45.789Z,26.93
2022-09-20T18:54:13.316Z,26.95
2022-09-20T18:56:44.799Z,26.81
2022-09-20T18:59:18.618Z,26.59
2022-09-20T19:01:54.652Z,26.35
2022-09-20T19:04:32.581Z,26.26
2022-09-20T19:07:17.625Z,26.08
2022-09-20T19:10:07.069Z,26.07
2022-09-20T19:13:11.271Z,26.01
2022-09-20T19:15:56.649Z,26.10
2022-09-20T19:18:59.130Z,26.03
2022-09-20T19:21:33.702Z,25.85
2022-09-20T19:24:17.792Z,25.80
2022-09-20T19:26:45.076Z,25.63
2022-09-20T19:29:21.402Z,25.59
2022-09-20T19:31:50.920Z,25.57
2022-09-20T19:34:23.910Z,25.50
2022-09-20T19:37:19.662Z,25.43
2022-09-20T19:40:04.110Z,25.45
2022-09-20T19:42:36.376Z,25.50
2022-09-20T19:45:19.573Z,25.52
2022-09-20T19:48:05.971Z,25.54
2022-09-20T19:50:45.062Z,25.44
2022-09-20T19:53:17.311Z,25.34
2022-09-20T19:55:47.534Z,25.32
2022-09-20T19:58:15.517Z,25.34
2022-09-20T20:00:47.229Z,25.36
2022-09-20T20:03:15.867Z,25.29
2022-09-20T20:05:51.257Z,25.28
2022-09-20T20:08:26.293Z,25.26
2022-09-20T20:11:01.424Z,25.30
2022-09-20T20:14:01.884Z,25.38
2022-09-20T20:17:06.904Z,25.38
2022-09-20T20:19:52.240Z,25.42
2022-09-20T20:22:57.060Z,25.41
2022-09-20T20:25:52.060Z,25.43
2022-09-20T20:28:19.176Z,25.32
2022-09-20T20:30:46.223Z,25.32
2022-09-20T20:33:17.049Z,25.33
2022-09-20T20:35:43.966Z,25.31
2022-09-20T20:38:12.009Z,25.28
2022-09-20T20:40:40.576Z,25.32
2022-09-20T20:43:09.561Z,25.33
2022-09-20T20:45:36.790Z,25.28
2022-09-20T20:48:03.942Z,25.21
2022-09-20T20:50:31.025Z,25.17
2022-09-20T20:52:58.054Z,25.08
2022-09-20T20:55:25.134Z,25.10
2022-09-20T20:57:55.213Z,25.12
2022-09-20T21:00:22.170Z,25.17
2022-09-20T21:02:49.338Z,25.21
2022-09-20T21:05:16.372Z,25.24
2022-09-20T21:07:44.470Z,25.18
2022-09-20T21:10:11.599Z,25.11
2022-09-20T21:12:40.093Z,25.03
2022-09-20T21:15:08.612Z,25.07
2022-09-20T21:17:36.373Z,25.02
2022-09-20T21:20:04.370Z,24.98
2022-09-20T21:22:32.391Z,24.92
2022-09-20T21:24:59.504Z,24.94
2022-09-20T21:27:29.678Z,24.96
2022-09-20T21:32:24.215Z,24.96
2022-09-20T21:34:51.208Z,25.00
2022-09-20T21:37:18.270Z,24.99
2022-09-20T21:39:45.763Z,25.01
2022-09-20T21:42:13.631Z,25.01
2022-09-20T21:44:43.557Z,25.06
2022-09-20T21:47:10.610Z,25.13
2022-09-20T21:49:37.630Z,25.20
2022-09-20T21:52:06.096Z,25.27
2022-09-20T21:54:33.140Z,25.31
2022-09-20T21:57:00.238Z,25.33
2022-09-20T21:59:27.191Z,25.39
2022-09-20T22:01:55.328Z,25.45
2022-09-20T22:04:22.487Z,25.49
2022-09-20T22:06:49.452Z,25.51
2022-09-20T22:09:18.003Z,25.51
2022-09-20T22:11:49.183Z,25.52
2022-09-20T22:14:19.634Z,25.55
2022-09-20T22:16:48.293Z,25.59
2022-09-20T22:19:17.367Z,25.62
2022-09-20T22:21:49.076Z,25.62
2022-09-20T22:24:17.133Z,25.60
2022-09-20T22:26:49.803Z,25.54
2022-09-20T22:29:17.783Z,25.54
2022-09-20T22:31:47.074Z,25.48
2022-09-20T22:34:17.313Z,25.47
2022-09-20T22:36:44.969Z,25.49
2022-09-20T22:39:12.707Z,25.53
2022-09-20T22:41:41.759Z,25.56
2022-09-20T22:44:09.270Z,25.59
2022-09-20T22:46:36.768Z,25.60
2022-09-20T22:49:08.024Z,25.62
2022-09-20T22:51:35.307Z,25.62
2022-09-20T22:54:10.388Z,25.63
2022-09-20T22:56:38.782Z,25.63
2022-09-20T22:59:06.848Z,25.63
2022-09-20T23:01:39.765Z,25.64
2022-09-20T23:04:12.591Z,25.65
2022-09-20T23:06:48.191Z,25.66
2022-09-20T23:09:18.025Z,25.65
2022-09-20T23:11:45.458Z,25.64
2022-09-20T23:14:15.103Z,25.62
2022-09-20T23:16:42.521Z,25.61
2022-09-20T23:19:10.112Z,25.60
2022-09-20T23:21:39.197Z,25.59
2022-09-20T23:24:08.523Z,25.59
2022-09-20T23:26:38.223Z,25.58
2022-09-20T23:29:16.244Z,25.55
2022-09-20T23:31:46.438Z,25.58
2022-09-20T23:34:15.208Z,25.59
2022-09-20T23:36:42.787Z,25.60
2022-09-20T23:39:11.111Z,25.61
2022-09-20T23:41:38.520Z,25.61
2022-09-20T23:44:06.917Z,25.57
2022-09-20T23:46:34.589Z,25.54
2022-09-20T23:49:02.047Z,25.52
2022-09-20T23:51:30.962Z,25.49
2022-09-20T23:53:58.273Z,25.47
2022-09-20T23:56:26.703Z,25.43
2022-09-20T23:58:54.292Z,25.40
